Time;durP1;ratioP1;P1;durP2;ratioP2;P2;SDS_P1;SDS_P2;PMS_P1;PMS_P2;Temp;Humidity;BMP_temperature;BMP_pressure;BME280_temperature;BME280_humidity;BME280_pressure;Samples;Min_cycle;Max_cycle;Signal;HPM_P1;HPM_P2
2024/01/07 00:00:00;;;;;;;0.80;0.80;;;5.30;99.90;;;;;;5035156;28;20176;-89
2024/01/07 00:02:26;;;;;;;0.73;0.73;;;5.20;99.90;;;;;;5034861;28;20687;-89
2024/01/07 00:04:51;;;;;;;0.80;0.80;;;5.20;99.90;;;;;;5034564;28;20172;-90
2024/01/07 00:07:17;;;;;;;0.77;0.77;;;5.20;99.90;;;;;;5034143;28;20266;-89
2024/01/07 00:09:42;;;;;;;0.80;0.80;;;5.20;99.90;;;;;;5034840;28;20186;-90
2024/01/07 00:12:09;;;;;;;0.80;0.80;;;5.20;99.90;;;;;;5033538;28;20234;-89
2024/01/07 00:14:35;;;;;;;0.70;0.70;;;5.20;99.90;;;;;;5035032;28;20665;-88
2024/01/07 00:17:00;;;;;;;0.80;0.80;;;5.20;99.90;;;;;;5034820;28;20556;-89
2024/01/07 00:19:26;;;;;;;0.80;0.80;;;5.30;99.90;;;;;;5034885;28;20208;-90
2024/01/07 00:21:51;;;;;;;0.70;0.70;;;5.20;99.90;;;;;;5034021;28;20350;-91
2024/01/07 00:24:17;;;;;;;0.90;0.90;;;5.20;99.90;;;;;;5034160;28;20182;-91
2024/01/07 00:26:42;;;;;;;0.80;0.80;;;5.20;99.90;;;;;;5033670;28;20196;-89
2024/01/07 00:29:08;;;;;;;0.80;0.80;;;5.20;99.90;;;;;;5034268;28;20180;-88
2024/01/07 00:31:33;;;;;;;0.80;0.80;;;5.30;99.90;;;;;;5034152;28;20271;-91
2024/01/07 00:33:59;;;;;;;0.70;0.70;;;5.30;99.90;;;;;;5034057;28;20195;-90
2024/01/07 00:36:24;;;;;;;0.70;0.70;;;5.30;99.90;;;;;;5033663;28;20697;-88
2024/01/07 00:38:50;;;;;;;0.70;0.70;;;5.30;99.90;;;;;;5034333;28;20587;-90
2024/01/07 00:41:15;;;;;;;0.70;0.70;;;5.30;99.90;;;;;;5034020;28;20267;-90
2024/01/07 00:43:41;;;;;;;0.80;0.80;;;5.30;99.90;;;;;;5033960;28;20237;-88
2024/01/07 00:46:07;;;;;;;0.70;0.70;;;5.30;99.90;;;;;;5033435;28;20738;-88
2024/01/07 00:48:32;;;;;;;0.80;0.80;;;5.30;99.90;;;;;;5033699;28;20784;-88
2024/01/07 00:50:58;;;;;;;0.80;0.80;;;5.30;99.90;;;;;;5033881;28;20203;-91
2024/01/07 00:53:23;;;;;;;0.77;0.77;;;5.60;99.90;;;;;;5033609;28;20190;-90
2024/01/07 00:55:49;;;;;;;0.80;0.80;;;5.40;99.90;;;;;;5032099;28;20196;-88
2024/01/07 00:58:15;;;;;;;0.73;0.73;;;5.40;99.90;;;;;;5034064;28;20207;-88
2024/01/07 01:00:40;;;;;;;0.80;0.80;;;5.40;99.90;;;;;;5032510;28;20657;-90
2024/01/07 01:03:06;;;;;;;0.80;0.80;;;5.40;99.90;;;;;;5033769;28;20638;-88
2024/01/07 01:05:31;;;;;;;0.80;0.80;;;5.40;99.90;;;;;;5033379;28;20683;-88
2024/01/07 01:07:57;;;;;;;0.70;0.70;;;5.50;99.90;;;;;;5033597;28;20661;-90
2024/01/07 01:10:22;;;;;;;0.70;0.70;;;5.50;99.90;;;;;;5033379;28;20630;-90
2024/01/07 01:12:48;;;;;;;0.80;0.80;;;5.50;99.90;;;;;;5033229;28;20267;-88
2024/01/07 01:15:16;;;;;;;0.80;0.80;;;5.60;99.90;;;;;;5033164;28;20191;-90
2024/01/07 01:17:42;;;;;;;0.80;0.80;;;5.50;99.90;;;;;;5032966;28;20211;-91
2024/01/07 01:20:08;;;;;;;0.90;0.90;;;5.50;99.90;;;;;;5032054;28;20178;-89
2024/01/07 01:22:34;;;;;;;0.80;0.80;;;5.50;99.90;;;;;;5032350;28;20191;-91
2024/01/07 01:24:59;;;;;;;0.70;0.70;;;5.40;99.90;;;;;;5057487;28;20190;-93
2024/01/07 01:27:25;;;;;;;0.77;0.77;;;5.40;99.90;;;;;;5050087;28;20188;-90
2024/01/07 01:29:51;;;;;;;0.87;0.87;;;6.20;99.90;;;;;;5033105;28;20179;-91
2024/01/07 01:32:16;;;;;;;0.80;0.80;;;5.40;99.90;;;;;;5025438;28;20186;-90
2024/01/07 01:34:42;;;;;;;0.80;0.80;;;5.40;99.90;;;;;;5013843;28;20179;-91
2024/01/07 01:37:08;;;;;;;0.80;0.80;;;5.40;99.90;;;;;;5013304;28;20220;-88
2024/01/07 01:39:34;;;;;;;0.80;0.80;;;5.40;99.90;;;;;;5013608;28;20235;-89
2024/01/07 01:42:00;;;;;;;0.80;0.80;;;5.40;99.90;;;;;;5035805;28;20187;-92
2024/01/07 01:44:27;;;;;;;0.70;0.70;;;5.30;99.90;;;;;;5038005;28;20234;-95
2024/01/07 01:46:54;;;;;;;0.90;0.90;;;5.30;99.90;;;;;;5038161;28;20192;-92
2024/01/07 01:49:20;;;;;;;0.80;0.80;;;5.40;99.90;;;;;;5038141;28;20180;-90
2024/01/07 01:51:46;;;;;;;0.80;0.80;;;5.40;99.90;;;;;;5037729;28;20167;-88
2024/01/07 01:54:12;;;;;;;0.70;0.70;;;5.40;99.90;;;;;;5038065;28;20306;-90
2024/01/07 01:56:38;;;;;;;0.80;0.80;;;5.40;99.90;;;;;;5028390;28;20669;-89
2024/01/07 01:59:05;;;;;;;0.70;0.70;;;5.40;99.90;;;;;;5032831;28;20218;-91
2024/01/07 02:01:31;;;;;;;0.80;0.80;;;5.40;99.90;;;;;;5032669;28;20226;-88
2024/01/07 02:03:57;;;;;;;0.80;0.80;;;5.40;99.90;;;;;;5032386;28;20180;-89
2024/01/07 02:06:24;;;;;;;0.80;0.80;;;5.40;99.90;;;;;;5031901;28;20243;-92
2024/01/07 02:08:50;;;;;;;0.80;0.80;;;5.40;99.90;;;;;;5032218;28;20194;-89
2024/01/07 02:11:21;;;;;;;0.80;0.80;;;5.40;99.90;;;;;;5030891;28;20183;-90
2024/01/07 02:13:47;;;;;;;0.70;0.70;;;5.50;99.90;;;;;;5032405;28;20179;-90
2024/01/07 02:16:13;;;;;;;0.80;0.80;;;5.50;99.90;;;;;;5032038;28;20195;-89
2024/01/07 02:18:43;;;;;;;0.70;0.70;;;5.50;99.90;;;;;;5030906;28;20294;-89
2024/01/07 02:21:12;;;;;;;0.70;0.70;;;5.50;99.90;;;;;;5032259;28;20273;-92
2024/01/07 02:23:38;;;;;;;0.80;0.80;;;5.20;99.90;;;;;;5014185;28;20180;-89
2024/01/07 02:26:04;;;;;;;0.70;0.70;;;5.40;99.90;;;;;;5012009;28;20196;-90
2024/01/07 02:28:31;;;;;;;0.83;0.83;;;5.50;99.90;;;;;;5011937;28;20762;-89
2024/01/07 02:30:56;;;;;;;0.70;0.70;;;5.30;99.90;;;;;;5012669;28;20192;-91
2024/01/07 02:33:22;;;;;;;0.80;0.80;;;5.40;99.90;;;;;;5012628;28;20181;-91
2024/01/07 02:35:48;;;;;;;0.70;0.70;;;5.40;99.90;;;;;;5012500;28;20177;-90
2024/01/07 02:38:13;;;;;;;0.70;0.70;;;5.30;99.90;;;;;;5012382;28;20211;-91
2024/01/07 02:40:39;;;;;;;0.80;0.80;;;5.30;99.90;;;;;;5012190;28;20242;-90
2024/01/07 02:43:04;;;;;;;0.90;0.90;;;5.90;99.90;;;;;;5012140;28;20180;-91
2024/01/07 02:45:30;;;;;;;0.80;0.80;;;5.30;99.90;;;;;;5015296;28;20208;-91
2024/01/07 02:47:55;;;;;;;0.70;0.70;;;5.30;99.90;;;;;;5014879;28;20237;-91
2024/01/07 02:50:21;;;;;;;0.80;0.80;;;5.40;99.90;;;;;;5015947;28;20172;-91
2024/01/07 02:52:47;;;;;;;0.87;0.87;;;5.40;99.90;;;;;;5016294;28;20180;-92
2024/01/07 02:55:13;;;;;;;0.70;0.70;;;5.40;99.90;;;;;;5016435;28;20180;-90
2024/01/07 02:57:39;;;;;;;0.80;0.80;;;5.50;99.90;;;;;;5015466;28;20246;-91
2024/01/07 03:00:05;;;;;;;0.80;0.80;;;5.40;99.90;;;;;;5016055;28;20196;-90
2024/01/07 03:02:31;;;;;;;0.90;0.90;;;5.50;99.90;;;;;;5016171;28;20177;-90
2024/01/07 03:04:56;;;;;;;0.80;0.80;;;5.50;99.90;;;;;;5015991;28;20172;-91
2024/01/07 03:07:22;;;;;;;0.80;0.80;;;5.50;99.90;;;;;;5015683;28;20291;-91
2024/01/07 03:09:51;;;;;;;0.80;0.80;;;5.40;99.90;;;;;;5015840;28;20704;-90
2024/01/07 03:12:17;;;;;;;0.80;0.80;;;5.40;99.90;;;;;;5015723;28;20172;-89
2024/01/07 03:14:43;;;;;;;0.73;0.73;;;5.40;99.90;;;;;;5016069;28;20200;-89
2024/01/07 03:17:10;;;;;;;0.80;0.80;;;5.30;99.90;;;;;;5015618;28;20356;-91
2024/01/07 03:19:37;;;;;;;0.80;0.80;;;5.30;99.90;;;;;;5016040;28;20228;-90
2024/01/07 03:22:02;;;;;;;0.83;0.83;;;5.30;99.90;;;;;;5015664;28;20267;-92
2024/01/07 03:24:28;;;;;;;0.80;0.80;;;5.20;99.90;;;;;;5028748;28;20169;-90
2024/01/07 03:26:53;;;;;;;0.77;0.77;;;5.20;99.90;;;;;;5037340;28;20205;-91
2024/01/07 03:29:19;;;;;;;0.80;0.80;;;5.20;99.90;;;;;;5037052;28;20348;-89
2024/01/07 03:31:44;;;;;;;0.70;0.70;;;5.10;99.90;;;;;;5037485;28;20164;-91
2024/01/07 03:34:10;;;;;;;0.80;0.80;;;5.20;99.90;;;;;;5016633;28;20177;-89
2024/01/07 03:36:35;;;;;;;0.80;0.80;;;5.10;99.90;;;;;;5015177;28;20197;-89
2024/01/07 03:39:01;;;;;;;0.80;0.80;;;5.10;99.90;;;;;;5015299;28;20235;-89
2024/01/07 03:41:27;;;;;;;0.80;0.80;;;5.20;99.90;;;;;;5016329;28;20177;-90
2024/01/07 03:43:53;;;;;;;0.73;0.73;;;5.20;99.90;;;;;;5030630;28;20193;-90
2024/01/07 03:46:18;;;;;;;0.80;0.80;;;5.20;99.90;;;;;;5036926;28;20196;-90
2024/01/07 03:48:44;;;;;;;0.80;0.80;;;5.20;99.90;;;;;;5018873;28;20180;-89
2024/01/07 03:51:10;;;;;;;0.80;0.80;;;5.20;99.90;;;;;;5020086;28;20227;-89
2024/01/07 03:53:35;;;;;;;0.90;0.90;;;5.20;99.90;;;;;;5017636;28;20172;-91
2024/01/07 03:56:01;;;;;;;0.90;0.90;;;5.20;99.90;;;;;;5016541;28;20196;-90
2024/01/07 03:58:26;;;;;;;0.80;0.80;;;5.10;99.90;;;;;;5019214;28;20215;-91
2024/01/07 04:00:52;;;;;;;0.70;0.70;;;5.10;99.90;;;;;;5017430;28;20168;-90
2024/01/07 04:03:17;;;;;;;0.80;0.80;;;5.10;99.90;;;;;;5016825;28;20179;-90
2024/01/07 04:05:45;;;;;;;0.87;0.87;;;5.00;99.90;;;;;;5016126;28;20199;-88
2024/01/07 04:08:11;;;;;;;0.87;0.87;;;4.90;99.90;;;;;;5015701;28;20188;-88
2024/01/07 04:10:37;;;;;;;0.90;0.90;;;4.90;99.90;;;;;;5015108;28;20176;-88
2024/01/07 04:13:02;;;;;;;0.80;0.80;;;4.90;99.90;;;;;;5015849;28;20271;-91
2024/01/07 04:15:28;;;;;;;0.73;0.73;;;5.00;99.90;;;;;;5015415;28;20271;-88
2024/01/07 04:17:53;;;;;;;0.80;0.80;;;5.00;99.90;;;;;;5014520;28;20205;-89
2024/01/07 04:20:19;;;;;;;0.80;0.80;;;5.00;99.90;;;;;;5015135;28;20208;-89
2024/01/07 04:22:44;;;;;;;0.80;0.80;;;5.00;99.90;;;;;;5015292;28;20260;-91
2024/01/07 04:25:10;;;;;;;0.80;0.80;;;5.00;99.90;;;;;;5014883;28;20177;-89
2024/01/07 04:27:37;;;;;;;0.80;0.80;;;4.90;99.90;;;;;;5014883;28;20199;-90
2024/01/07 04:30:04;;;;;;;0.80;0.80;;;4.90;99.90;;;;;;5014989;28;20232;-89
2024/01/07 04:32:29;;;;;;;0.80;0.80;;;5.00;99.90;;;;;;5015056;28;20226;-88
2024/01/07 04:34:57;;;;;;;0.70;0.70;;;5.00;78.80;;;;;;5014764;28;20184;-89
2024/01/07 04:37:22;;;;;;;0.80;0.80;;;5.00;70.50;;;;;;5013374;28;20366;-89
2024/01/07 04:39:48;;;;;;;0.80;0.80;;;5.00;71.90;;;;;;5014591;28;20644;-88
2024/01/07 04:42:13;;;;;;;0.80;0.80;;;5.00;77.60;;;;;;5014958;28;20187;-88
2024/01/07 04:44:39;;;;;;;0.90;0.90;;;5.00;54.50;;;;;;5022230;28;20176;-88
2024/01/07 04:47:22;;;;;;;0.80;0.80;;;5.00;27.40;;;;;;5038576;28;20184;-90
2024/01/07 04:49:47;;;;;;;0.70;0.70;;;5.00;41.30;;;;;;5036960;28;20168;-89
2024/01/07 04:52:13;;;;;;;0.80;0.80;;;5.10;49.80;;;;;;5015304;28;20246;-90
2024/01/07 04:54:38;;;;;;;0.70;0.70;;;5.00;51.00;;;;;;5015628;28;20280;-89
2024/01/07 04:57:04;;;;;;;0.83;0.83;;;5.00;49.60;;;;;;5014983;28;20200;-87
2024/01/07 04:59:30;;;;;;;0.73;0.73;;;4.90;53.20;;;;;;5014235;28;20216;-88
2024/01/07 05:01:55;;;;;;;0.80;0.80;;;4.90;48.60;;;;;;5015332;28;20172;-88
2024/01/07 05:04:21;;;;;;;0.90;0.90;;;4.90;55.00;;;;;;5013908;28;20180;-89
2024/01/07 05:06:46;;;;;;;0.80;0.80;;;4.90;38.90;;;;;;5013309;28;20239;-89
2024/01/07 05:09:12;;;;;;;0.80;0.80;;;4.80;55.50;;;;;;5013756;28;20181;-89
2024/01/07 05:11:40;;;;;;;0.70;0.70;;;4.80;81.30;;;;;;5013369;28;20239;-88
2024/01/07 05:14:05;;;;;;;0.87;0.87;;;4.80;99.90;;;;;;5013623;28;20705;-88
2024/01/07 05:16:31;;;;;;;0.80;0.80;;;4.80;99.90;;;;;;5011947;28;20200;-89
2024/01/07 05:18:57;;;;;;;0.90;0.90;;;4.80;99.90;;;;;;5018709;28;20204;-91
2024/01/07 05:21:22;;;;;;;0.80;0.80;;;4.80;99.90;;;;;;5033041;28;20182;-89
2024/01/07 05:23:48;;;;;;;0.80;0.80;;;4.70;99.90;;;;;;5037109;28;20169;-89
2024/01/07 05:26:13;;;;;;;0.90;0.90;;;4.80;99.90;;;;;;5037075;28;20188;-90
2024/01/07 05:28:39;;;;;;;0.77;0.77;;;4.80;99.90;;;;;;5037433;28;20335;-89
2024/01/07 05:31:05;;;;;;;0.73;0.73;;;4.80;99.90;;;;;;5037344;28;20169;-88
2024/01/07 05:33:30;;;;;;;0.87;0.87;;;4.90;99.90;;;;;;5037395;28;20192;-88
2024/01/07 05:35:56;;;;;;;0.70;0.70;;;4.90;99.90;;;;;;5037013;28;20193;-90
2024/01/07 05:38:21;;;;;;;0.70;0.70;;;5.00;99.90;;;;;;5024159;28;20224;-88
2024/01/07 05:40:47;;;;;;;0.80;0.80;;;5.00;95.20;;;;;;5014007;28;20211;-90
2024/01/07 05:43:12;;;;;;;0.80;0.80;;;5.00;83.10;;;;;;5013819;28;20657;-89
2024/01/07 05:45:38;;;;;;;0.80;0.80;;;5.00;76.60;;;;;;5013857;28;20546;-88
2024/01/07 05:48:04;;;;;;;0.80;0.80;;;5.20;68.80;;;;;;5013244;28;20207;-89
2024/01/07 05:50:30;;;;;;;0.77;0.77;;;5.10;68.90;;;;;;5017784;28;20636;-88
2024/01/07 05:52:55;;;;;;;0.87;0.87;;;5.10;48.90;;;;;;5036096;28;20641;-89
2024/01/07 05:55:21;;;;;;;0.80;0.80;;;5.10;30.20;;;;;;5043323;28;20179;-90
2024/01/07 05:57:46;;;;;;;0.80;0.80;;;5.10;33.20;;;;;;5032924;28;20222;-89
2024/01/07 06:00:12;;;;;;;0.77;0.77;;;5.50;30.90;;;;;;5056563;28;20232;-89
2024/01/07 06:02:39;;;;;;;0.73;0.73;;;5.10;38.50;;;;;;5057597;28;20202;-92
2024/01/07 06:05:05;;;;;;;0.80;0.80;;;5.00;39.30;;;;;;5057421;28;20195;-91
2024/01/07 06:07:31;;;;;;;0.70;0.70;;;5.00;52.10;;;;;;5057947;28;20199;-90
2024/01/07 06:09:56;;;;;;;0.80;0.80;;;5.00;65.30;;;;;;5048552;28;20191;-89
2024/01/07 06:12:22;;;;;;;0.70;0.70;;;5.00;75.10;;;;;;5034061;28;20524;-88
2024/01/07 06:14:47;;;;;;;0.80;0.80;;;5.10;75.80;;;;;;5033324;28;20258;-89
2024/01/07 06:17:13;;;;;;;0.73;0.73;;;5.10;76.60;;;;;;5032316;28;20238;-89
2024/01/07 06:19:38;;;;;;;0.70;0.70;;;5.10;86.30;;;;;;5052542;28;20214;-89
2024/01/07 06:22:04;;;;;;;0.90;0.90;;;5.10;87.30;;;;;;5055172;28;20179;-90
2024/01/07 06:24:29;;;;;;;0.70;0.70;;;5.20;86.80;;;;;;5055919;28;20183;-91
2024/01/07 06:26:55;;;;;;;0.80;0.80;;;5.20;73.30;;;;;;5055627;28;20191;-89
2024/01/07 06:29:21;;;;;;;0.90;0.90;;;5.20;77.60;;;;;;5044115;28;20270;-89
2024/01/07 06:31:46;;;;;;;0.80;0.80;;;5.10;90.50;;;;;;5042014;28;20175;-89
2024/01/07 06:34:15;;;;;;;0.80;0.80;;;5.10;95.40;;;;;;5053232;28;20239;-89
2024/01/07 06:36:43;;;;;;;0.80;0.80;;;5.10;95.10;;;;;;5055672;28;20267;-88
2024/01/07 06:39:09;;;;;;;0.83;0.83;;;5.10;85.70;;;;;;5042154;28;20226;-88
2024/01/07 06:41:35;;;;;;;0.70;0.70;;;5.60;56.80;;;;;;5032622;28;20168;-89
2024/01/07 06:44:01;;;;;;;0.70;0.70;;;5.00;57.40;;;;;;5032368;28;20184;-88
2024/01/07 06:46:27;;;;;;;0.80;0.80;;;5.00;56.50;;;;;;5032432;28;20203;-88
2024/01/07 06:48:52;;;;;;;0.80;0.80;;;5.00;36.50;;;;;;5054179;28;20164;-92
2024/01/07 06:51:18;;;;;;;0.80;0.80;;;5.00;45.00;;;;;;5053059;28;20176;-88
2024/01/07 06:53:44;;;;;;;0.80;0.80;;;4.90;45.00;;;;;;5032249;28;20180;-88
2024/01/07 06:56:09;;;;;;;0.90;0.90;;;4.90;54.20;;;;;;5031799;28;20206;-90
2024/01/07 06:58:35;;;;;;;0.80;0.80;;;4.90;70.00;;;;;;5031802;28;20208;-90
2024/01/07 07:01:00;;;;;;;0.80;0.80;;;4.90;85.50;;;;;;5031194;28;20664;-89
2024/01/07 07:03:26;;;;;;;0.80;0.80;;;4.90;94.00;;;;;;5032260;28;20172;-90
2024/01/07 07:05:51;;;;;;;0.83;0.83;;;4.90;97.10;;;;;;5031477;28;20219;-87
2024/01/07 07:08:17;;;;;;;0.80;0.80;;;4.90;97.40;;;;;;5030781;28;20179;-89
2024/01/07 07:10:43;;;;;;;0.80;0.80;;;4.90;98.60;;;;;;5033836;28;20862;-86
2024/01/07 07:13:08;;;;;;;0.80;0.80;;;4.90;95.60;;;;;;5033473;28;20176;-87
2024/01/07 07:15:34;;;;;;;0.70;0.70;;;4.90;67.60;;;;;;5035584;28;20199;-89
2024/01/07 07:17:59;;;;;;;0.80;0.80;;;4.90;67.40;;;;;;5037888;28;20242;-85
2024/01/07 07:20:25;;;;;;;0.80;0.80;;;4.90;65.50;;;;;;5036353;28;20195;-86
2024/01/07 07:22:51;;;;;;;0.77;0.77;;;4.90;55.90;;;;;;5037473;28;20183;-86
2024/01/07 07:25:18;;;;;;;0.80;0.80;;;4.90;56.00;;;;;;5036235;28;20179;-87
2024/01/07 07:27:44;;;;;;;0.80;0.80;;;4.90;58.90;;;;;;5037019;28;20195;-84
2024/01/07 07:30:09;;;;;;;0.80;0.80;;;4.90;70.40;;;;;;5036934;28;20246;-87
2024/01/07 07:32:35;;;;;;;0.80;0.80;;;5.00;71.00;;;;;;5039649;28;20203;-87
2024/01/07 07:35:01;;;;;;;0.90;0.90;;;4.90;44.20;;;;;;5039423;28;20528;-88
2024/01/07 07:37:26;;;;;;;0.80;0.80;;;4.80;31.10;;;;;;5038974;28;20200;-84
2024/01/07 07:39:52;;;;;;;0.83;0.83;;;4.80;42.00;;;;;;5039205;28;20227;-87
2024/01/07 07:42:17;;;;;;;0.83;0.83;;;4.80;56.60;;;;;;5039719;28;20245;-85
2024/01/07 07:44:43;;;;;;;0.80;0.80;;;4.80;31.00;;;;;;5037622;28;20180;-83
2024/01/07 07:47:11;;;;;;;0.80;0.80;;;4.80;21.10;;;;;;5039565;28;20198;-87
2024/01/07 07:49:39;;;;;;;0.80;0.80;;;4.80;19.80;;;;;;5039220;28;20180;-88
2024/01/07 07:52:14;;;;;;;0.70;0.70;;;4.80;1.00;;;;;;5040450;28;20184;-89
2024/01/07 07:54:39;;;;;;;0.80;0.80;;;4.70;1.00;;;;;;5037038;28;20195;-87
2024/01/07 07:57:05;;;;;;;0.80;0.80;;;4.80;6.00;;;;;;5037674;28;20219;-89
2024/01/07 07:59:31;;;;;;;0.80;0.80;;;4.80;33.60;;;;;;5040928;28;20200;-87
2024/01/07 08:01:56;;;;;;;0.70;0.70;;;5.00;77.10;;;;;;5037830;28;20183;-88
2024/01/07 08:04:22;;;;;;;0.80;0.80;;;5.00;50.40;;;;;;5038145;28;20175;-89
2024/01/07 08:06:48;;;;;;;0.77;0.77;;;5.00;30.70;;;;;;5037929;28;20207;-87
2024/01/07 08:09:14;;;;;;;0.70;0.70;;;5.10;14.80;;;;;;5037921;28;20204;-89
2024/01/07 08:11:40;;;;;;;0.83;0.83;;;5.10;1.00;;;;;;5037932;28;20175;-88
2024/01/07 08:14:06;;;;;;;0.80;0.80;;;5.10;1.00;;;;;;5037437;28;20221;-89
2024/01/07 08:16:32;;;;;;;0.80;0.80;;;5.20;1.00;;;;;;5037839;28;20192;-88
2024/01/07 08:18:58;;;;;;;0.87;0.87;;;5.10;1.00;;;;;;5036842;28;20210;-87
2024/01/07 08:21:24;;;;;;;0.70;0.70;;;5.20;1.00;;;;;;5035344;28;20203;-89
2024/01/07 08:23:50;;;;;;;0.80;0.80;;;5.10;1.00;;;;;;5038723;28;20183;-89
2024/01/07 08:26:19;;;;;;;0.90;0.90;;;5.00;1.00;;;;;;5038199;28;20254;-89
2024/01/07 08:28:45;;;;;;;0.80;0.80;;;4.90;1.00;;;;;;5040994;28;20187;-89
2024/01/07 08:31:10;;;;;;;0.80;0.80;;;4.80;1.00;;;;;;5054620;28;20195;-90
2024/01/07 08:33:36;;;;;;;0.90;0.90;;;4.80;1.00;;;;;;5057040;28;20191;-87
2024/01/07 08:36:02;;;;;;;0.83;0.83;;;4.80;1.00;;;;;;5055124;28;20183;-87
2024/01/07 08:38:27;;;;;;;0.80;0.80;;;5.20;1.00;;;;;;5056687;28;20266;-90
2024/01/07 08:40:53;;;;;;;0.87;0.87;;;4.60;1.00;;;;;;5054001;28;20264;-88
2024/01/07 08:43:19;;;;;;;0.80;0.80;;;4.50;1.00;;;;;;5047448;28;20255;-91
2024/01/07 08:45:45;;;;;;;0.80;0.80;;;4.40;1.00;;;;;;5039366;28;20188;-88
2024/01/07 08:48:12;;;;;;;0.90;0.90;;;4.40;1.00;;;;;;5039131;28;20260;-88
2024/01/07 08:50:39;;;;;;;0.80;0.80;;;4.40;1.00;;;;;;5037000;28;20191;-88
2024/01/07 08:53:04;;;;;;;0.90;0.90;;;4.70;1.00;;;;;;5036814;28;20195;-88
2024/01/07 08:55:30;;;;;;;0.93;0.93;;;4.50;1.00;;;;;;5036898;28;20237;-88
2024/01/07 08:57:56;;;;;;;0.90;0.90;;;4.60;1.00;;;;;;5037047;28;20204;-87
2024/01/07 09:00:25;;;;;;;0.70;0.70;;;4.60;1.00;;;;;;5036484;28;20182;-89
2024/01/07 09:02:52;;;;;;;0.80;0.80;;;4.60;1.00;;;;;;5035193;28;20180;-89
2024/01/07 09:05:17;;;;;;;0.87;0.87;;;4.60;1.00;;;;;;5036375;28;20732;-89
2024/01/07 09:07:43;;;;;;;0.80;0.80;;;4.60;1.00;;;;;;5040404;28;20199;-87
2024/01/07 09:10:10;;;;;;;0.70;0.70;;;4.60;1.00;;;;;;5037268;28;20789;-89
2024/01/07 09:12:46;;;;;;;0.80;0.80;;;4.60;99.90;;;;;;5043559;28;20171;-87
2024/01/07 09:15:12;;;;;;;0.80;0.80;;;4.50;99.90;;;;;;5027815;28;20173;-90
2024/01/07 09:17:38;;;;;;;0.80;0.80;;;4.50;99.90;;;;;;5018104;28;20283;-87
2024/01/07 09:20:07;;;;;;;0.80;0.80;;;4.40;99.90;;;;;;5036697;28;20338;-86
2024/01/07 09:22:34;;;;;;;0.90;0.90;;;4.30;1.00;;;;;;5038108;28;20282;-88
2024/01/07 09:25:01;;;;;;;0.80;0.80;;;4.30;1.00;;;;;;5036077;28;20189;-88
2024/01/07 09:27:26;;;;;;;0.80;0.80;;;4.50;1.00;;;;;;5035922;28;20212;-85
2024/01/07 09:29:52;;;;;;;0.70;0.70;;;4.70;1.00;;;;;;5037019;28;20176;-88
2024/01/07 09:32:17;;;;;;;0.80;0.80;;;4.60;1.00;;;;;;5037254;28;20262;-87
2024/01/07 09:34:43;;;;;;;0.87;0.87;;;4.40;99.90;;;;;;5037406;28;20271;-87
2024/01/07 09:37:09;;;;;;;0.80;0.80;;;4.30;99.90;;;;;;5037586;28;20196;-86
2024/01/07 09:39:40;;;;;;;0.87;0.87;;;4.30;99.90;;;;;;5038679;28;20204;-85
2024/01/07 09:42:15;;;;;;;0.80;0.80;;;4.10;99.90;;;;;;5038427;28;20176;-87
2024/01/07 09:44:45;;;;;;;0.80;0.80;;;4.10;99.90;;;;;;5040518;28;20210;-87
2024/01/07 09:47:14;;;;;;;0.87;0.87;;;4.00;99.90;;;;;;5040189;28;20207;-87
2024/01/07 09:49:42;;;;;;;0.87;0.87;;;4.10;96.60;;;;;;5048280;28;20180;-84
2024/01/07 09:52:09;;;;;;;0.90;0.90;;;4.00;1.00;;;;;;5053766;28;20248;-86
2024/01/07 09:54:38;;;;;;;0.80;0.80;;;3.90;1.00;;;;;;5052990;28;20188;-87
2024/01/07 09:57:10;;;;;;;0.90;0.90;;;3.80;1.00;;;;;;5050844;28;20192;-87
2024/01/07 09:59:37;;;;;;;0.90;0.90;;;3.70;1.00;;;;;;5039980;28;20304;-87
2024/01/07 10:02:04;;;;;;;0.90;0.90;;;3.70;99.90;;;;;;5041134;28;20171;-87
2024/01/07 10:04:30;;;;;;;0.90;0.90;;;3.70;1.00;;;;;;5038710;28;20656;-87
2024/01/07 10:06:56;;;;;;;0.90;0.90;;;3.60;1.00;;;;;;5038774;28;20223;-87
2024/01/07 10:09:29;;;;;;;0.90;0.90;;;3.60;99.90;;;;;;5039628;28;20657;-91
2024/01/07 10:11:56;;;;;;;0.90;0.90;;;3.70;99.90;;;;;;5038582;28;20178;-89
2024/01/07 10:14:25;;;;;;;0.90;0.90;;;3.70;99.90;;;;;;5037317;28;20275;-88
2024/01/07 10:16:52;;;;;;;0.93;0.93;;;3.70;99.90;;;;;;5039181;28;20264;-87
2024/01/07 10:19:22;;;;;;;0.90;0.90;;;3.70;99.90;;;;;;5038671;28;20192;-86
2024/01/07 10:22:01;;;;;;;0.90;0.90;;;3.80;99.90;;;;;;5037783;28;20203;-87
2024/01/07 10:24:34;;;;;;;0.90;0.90;;;3.80;99.90;;;;;;5037337;28;20175;-87
2024/01/07 10:27:00;;;;;;;0.90;0.90;;;3.90;99.90;;;;;;5034921;28;20203;-89
2024/01/07 10:29:27;;;;;;;0.90;0.90;;;3.90;99.90;;;;;;5036113;28;20176;-87
2024/01/07 10:31:55;;;;;;;0.80;0.80;;;4.00;99.90;;;;;;5026813;28;20187;-87
2024/01/07 10:34:23;;;;;;;0.90;0.90;;;3.90;1.00;;;;;;5026602;28;20183;-88
2024/01/07 10:36:54;;;;;;;0.80;0.80;;;4.30;42.70;;;;;;5029743;28;20204;-88
2024/01/07 10:39:20;;;;;;;0.80;0.80;;;3.80;99.90;;;;;;5021784;28;20208;-87
2024/01/07 10:41:47;;;;;;;0.80;0.80;;;3.90;99.90;;;;;;5034112;28;20613;-88
2024/01/07 10:44:13;;;;;;;0.90;0.90;;;3.90;99.90;;;;;;5016696;28;20191;-88
2024/01/07 10:46:40;;;;;;;0.90;0.90;;;3.80;99.90;;;;;;5033892;28;20575;-89
2024/01/07 10:49:22;;;;;;;0.90;0.90;;;3.80;1.00;;;;;;5034625;28;20168;-89
2024/01/07 10:52:07;;;;;;;0.90;0.90;;;3.80;99.90;;;;;;5034004;28;20171;-87
2024/01/07 10:54:35;;;;;;;0.80;0.80;;;3.80;99.90;;;;;;5031599;28;20563;-88
2024/01/07 10:57:16;;;;;;;0.90;0.90;;;3.80;99.90;;;;;;5015193;28;20258;-88
2024/01/07 10:59:43;;;;;;;0.93;0.93;;;3.80;98.90;;;;;;5022349;28;20242;-87
2024/01/07 11:02:10;;;;;;;0.70;0.70;;;3.90;99.90;;;;;;5035233;28;20553;-89
2024/01/07 11:05:08;;;;;;;0.90;0.90;;;3.90;99.90;;;;;;5019971;28;20240;-89
2024/01/07 11:07:46;;;;;;;0.80;0.80;;;3.80;99.90;;;;;;5037844;28;20223;-91
2024/01/07 11:10:19;;;;;;;0.90;0.90;;;3.70;1.00;;;;;;5036371;28;20633;-87
2024/01/07 11:12:59;;;;;;;0.80;0.80;;;3.70;32.50;;;;;;5035361;28;20266;-86
2024/01/07 11:15:49;;;;;;;0.77;0.77;;;3.60;1.00;;;;;;5029876;28;20180;-86
2024/01/07 11:18:19;;;;;;;0.80;0.80;;;3.50;14.90;;;;;;5037705;28;20637;-88
2024/01/07 11:20:46;;;;;;;0.80;0.80;;;3.50;1.00;;;;;;5041176;28;20622;-89
2024/01/07 11:23:32;;;;;;;0.80;0.80;;;3.70;1.00;;;;;;5026017;28;20184;-86
2024/01/07 11:25:59;;;;;;;0.90;0.90;;;3.60;99.90;;;;;;5033674;28;20199;-86
2024/01/07 11:28:43;;;;;;;0.90;0.90;;;3.50;99.90;;;;;;5020767;28;20184;-86
2024/01/07 11:31:09;;;;;;;0.90;0.90;;;3.60;99.90;;;;;;5029196;28;20180;-88
2024/01/07 11:33:36;;;;;;;0.90;0.90;;;3.50;1.00;;;;;;5057044;28;20167;-93
2024/01/07 11:36:04;;;;;;;0.77;0.77;;;3.50;1.00;;;;;;5067787;22;20220;-85
2024/01/07 11:38:29;;;;;;;1.00;1.00;;;3.60;1.00;;;;;;5059916;28;20215;-89
2024/01/07 11:40:56;;;;;;;0.80;0.80;;;3.70;23.60;;;;;;5055018;28;20551;-86
2024/01/07 11:43:22;;;;;;;0.87;0.87;;;3.70;1.00;;;;;;5055172;28;20633;-85
2024/01/07 11:45:50;;;;;;;0.80;0.80;;;3.70;99.90;;;;;;5055163;28;20195;-88
2024/01/07 11:48:16;;;;;;;0.90;0.90;;;3.60;1.00;;;;;;5041185;28;20180;-84
2024/01/07 11:50:42;;;;;;;0.90;0.90;;;3.50;99.90;;;;;;5039393;28;20206;-87
2024/01/07 11:53:08;;;;;;;0.80;0.80;;;3.50;99.90;;;;;;5036742;28;20180;-87
2024/01/07 11:55:35;;;;;;;0.80;0.80;;;3.50;99.90;;;;;;5017690;28;20172;-86
2024/01/07 11:58:04;;;;;;;0.90;0.90;;;3.70;1.00;;;;;;5020322;28;20587;-88
2024/01/07 12:00:34;;;;;;;0.80;0.80;;;3.60;1.00;;;;;;5038180;28;20543;-87
2024/01/07 12:03:01;;;;;;;0.83;0.83;;;3.50;99.90;;;;;;5039099;28;20661;-87
2024/01/07 12:05:27;;;;;;;1.07;1.07;;;3.50;99.90;;;;;;5038033;28;20188;-87
2024/01/07 12:07:53;;;;;;;0.90;0.90;;;3.50;1.00;;;;;;5039101;28;20285;-86
2024/01/07 12:10:19;;;;;;;0.90;0.90;;;3.50;1.00;;;;;;5041399;28;20606;-88
2024/01/07 12:12:45;;;;;;;0.90;0.90;;;3.50;1.00;;;;;;5036322;28;20172;-86
2024/01/07 12:15:13;;;;;;;0.90;0.90;;;3.50;99.90;;;;;;5040480;28;20176;-87
2024/01/07 12:17:39;;;;;;;0.90;0.90;;;3.40;1.00;;;;;;5037513;28;20212;-85
2024/01/07 12:20:07;;;;;;;0.90;0.90;;;3.40;1.00;;;;;;5039146;28;20629;-83
2024/01/07 12:22:33;;;;;;;0.90;0.90;;;3.40;1.00;;;;;;5025966;28;20188;-83
2024/01/07 12:25:02;;;;;;;0.83;0.83;;;3.40;1.00;;;;;;5002372;28;20235;-83
2024/01/07 12:27:28;;;;;;;0.90;0.90;;;3.40;1.00;;;;;;5047708;28;20226;-88
2024/01/07 12:29:59;;;;;;;0.90;0.90;;;3.30;1.00;;;;;;5027237;28;20187;-84
2024/01/07 12:32:30;;;;;;;0.90;0.90;;;3.20;1.00;;;;;;5037920;28;20180;-86
2024/01/07 12:35:02;;;;;;;0.90;0.90;;;3.10;99.90;;;;;;5038750;28;20293;-84
2024/01/07 12:37:27;;;;;;;0.90;0.90;;;3.20;1.00;;;;;;5039081;28;20689;-84
2024/01/07 12:39:54;;;;;;;0.83;0.83;;;3.20;1.00;;;;;;5025834;28;20298;-84
2024/01/07 12:42:21;;;;;;;0.80;0.80;;;3.20;1.00;;;;;;5019918;28;20180;-85
2024/01/07 12:44:48;;;;;;;0.90;0.90;;;3.20;1.00;;;;;;5019961;28;20187;-85
2024/01/07 12:47:14;;;;;;;0.90;0.90;;;3.30;1.00;;;;;;5020801;28;20218;-85
2024/01/07 12:49:39;;;;;;;0.90;0.90;;;3.30;99.90;;;;;;5023945;28;20179;-83
2024/01/07 12:52:14;;;;;;;0.93;0.93;;;3.30;1.00;;;;;;5020293;28;20244;-83
2024/01/07 12:54:40;;;;;;;0.90;0.90;;;3.20;1.00;;;;;;5011507;28;20371;-87
2024/01/07 12:57:06;;;;;;;0.90;0.90;;;3.20;1.00;;;;;;5022320;28;20196;-83